sensor_id;sensor_type;location;lat;lon;timestamp;P1;durP1;ratioP1;P2;durP2;ratioP2
66633;SDS011;53546;52.184;5.596;2023-02-08T00:01:18;6.28;;;4.40;;
66633;SDS011;53546;52.184;5.596;2023-02-08T00:03:45;5.95;;;4.50;;
66633;SDS011;53546;52.184;5.596;2023-02-08T00:06:11;5.90;;;4.45;;
66633;SDS011;53546;52.184;5.596;2023-02-08T00:08:37;6.05;;;4.40;;
66633;SDS011;53546;52.184;5.596;2023-02-08T00:11:03;6.07;;;4.32;;
66633;SDS011;53546;52.184;5.596;2023-02-08T00:13:30;6.15;;;4.30;;
66633;SDS011;53546;52.184;5.596;2023-02-08T00:15:55;4.70;;;4.15;;
66633;SDS011;53546;52.184;5.596;2023-02-08T00:18:21;6.15;;;4.45;;
66633;SDS011;53546;52.184;5.596;2023-02-08T00:20:47;6.30;;;3.85;;
66633;SDS011;53546;52.184;5.596;2023-02-08T00:23:13;5.68;;;3.97;;
66633;SDS011;53546;52.184;5.596;2023-02-08T00:25:39;5.80;;;4.32;;
66633;SDS011;53546;52.184;5.596;2023-02-08T00:28:06;5.10;;;3.90;;
66633;SDS011;53546;52.184;5.596;2023-02-08T00:30:32;4.43;;;3.50;;
66633;SDS011;53546;52.184;5.596;2023-02-08T00:32:59;5.50;;;3.92;;
66633;SDS011;53546;52.184;5.596;2023-02-08T00:35:25;4.28;;;3.75;;
66633;SDS011;53546;52.184;5.596;2023-02-08T00:37:51;5.28;;;3.75;;
66633;SDS011;53546;52.184;5.596;2023-02-08T00:40:16;5.50;;;3.88;;
66633;SDS011;53546;52.184;5.596;2023-02-08T00:42:41;5.00;;;3.75;;
66633;SDS011;53546;52.184;5.596;2023-02-08T00:45:07;4.13;;;3.50;;
66633;SDS011;53546;52.184;5.596;2023-02-08T00:47:33;6.45;;;3.75;;
66633;SDS011;53546;52.184;5.596;2023-02-08T00:49:58;5.65;;;3.40;;
66633;SDS011;53546;52.184;5.596;2023-02-08T00:52:24;8.63;;;3.40;;
66633;SDS011;53546;52.184;5.596;2023-02-08T00:54:49;4.05;;;3.35;;
66633;SDS011;53546;52.184;5.596;2023-02-08T00:57:14;7.00;;;3.05;;
66633;SDS011;53546;52.184;5.596;2023-02-08T00:59:40;5.22;;;3.25;;
66633;SDS011;53546;52.184;5.596;2023-02-08T01:02:05;4.28;;;3.30;;
66633;SDS011;53546;52.184;5.596;2023-02-08T01:04:31;3.70;;;3.22;;
66633;SDS011;53546;52.184;5.596;2023-02-08T01:06:56;6.10;;;2.95;;
66633;SDS011;53546;52.184;5.596;2023-02-08T01:09:22;3.95;;;3.03;;
66633;SDS011;53546;52.184;5.596;2023-02-08T01:11:48;3.05;;;2.75;;
66633;SDS011;53546;52.184;5.596;2023-02-08T01:14:13;3.83;;;2.85;;
66633;SDS011;53546;52.184;5.596;2023-02-08T01:16:38;3.70;;;3.05;;
66633;SDS011;53546;52.184;5.596;2023-02-08T01:19:04;4.13;;;2.97;;
66633;SDS011;53546;52.184;5.596;2023-02-08T01:21:35;3.28;;;2.90;;
66633;SDS011;53546;52.184;5.596;2023-02-08T01:24:02;4.07;;;2.58;;
66633;SDS011;53546;52.184;5.596;2023-02-08T01:26:28;5.30;;;2.90;;
66633;SDS011;53546;52.184;5.596;2023-02-08T01:28:54;7.25;;;3.10;;
66633;SDS011;53546;52.184;5.596;2023-02-08T01:31:24;3.67;;;2.63;;
66633;SDS011;53546;52.184;5.596;2023-02-08T01:33:53;3.60;;;2.80;;
66633;SDS011;53546;52.184;5.596;2023-02-08T01:36:18;3.90;;;2.80;;
66633;SDS011;53546;52.184;5.596;2023-02-08T01:38:44;3.03;;;2.65;;
66633;SDS011;53546;52.184;5.596;2023-02-08T01:41:14;5.72;;;2.70;;
66633;SDS011;53546;52.184;5.596;2023-02-08T01:48:53;3.85;;;2.70;;
66633;SDS011;53546;52.184;5.596;2023-02-08T01:51:23;3.33;;;2.80;;
66633;SDS011;53546;52.184;5.596;2023-02-08T01:53:50;3.20;;;2.60;;
66633;SDS011;53546;52.184;5.596;2023-02-08T01:56:19;3.40;;;2.88;;
66633;SDS011;53546;52.184;5.596;2023-02-08T01:58:50;2.92;;;2.53;;
66633;SDS011;53546;52.184;5.596;2023-02-08T02:01:17;2.70;;;2.50;;
66633;SDS011;53546;52.184;5.596;2023-02-08T02:03:43;3.13;;;2.65;;
66633;SDS011;53546;52.184;5.596;2023-02-08T02:06:12;3.33;;;2.70;;
66633;SDS011;53546;52.184;5.596;2023-02-08T02:08:42;4.30;;;2.47;;
66633;SDS011;53546;52.184;5.596;2023-02-08T02:11:11;3.45;;;2.80;;
66633;SDS011;53546;52.184;5.596;2023-02-08T02:13:37;3.08;;;2.60;;
66633;SDS011;53546;52.184;5.596;2023-02-08T02:16:03;3.90;;;2.70;;
66633;SDS011;53546;52.184;5.596;2023-02-08T02:18:29;3.80;;;2.63;;
66633;SDS011;53546;52.184;5.596;2023-02-08T02:34:44;3.13;;;2.30;;
66633;SDS011;53546;52.184;5.596;2023-02-08T02:39:51;4.32;;;2.80;;
66633;SDS011;53546;52.184;5.596;2023-02-08T02:45:41;2.90;;;2.60;;
66633;SDS011;53546;52.184;5.596;2023-02-08T02:51:37;4.53;;;2.30;;
66633;SDS011;53546;52.184;5.596;2023-02-08T02:54:16;4.18;;;2.58;;
66633;SDS011;53546;52.184;5.596;2023-02-08T02:56:44;2.88;;;2.40;;
66633;SDS011;53546;52.184;5.596;2023-02-08T02:59:12;2.40;;;2.20;;
66633;SDS011;53546;52.184;5.596;2023-02-08T03:01:39;2.60;;;2.40;;
66633;SDS011;53546;52.184;5.596;2023-02-08T03:04:14;2.88;;;2.38;;
66633;SDS011;53546;52.184;5.596;2023-02-08T03:06:54;2.85;;;2.60;;
66633;SDS011;53546;52.184;5.596;2023-02-08T03:15:10;2.70;;;2.50;;
66633;SDS011;53546;52.184;5.596;2023-02-08T03:20:55;2.55;;;2.20;;
66633;SDS011;53546;52.184;5.596;2023-02-08T03:31:25;2.65;;;2.35;;
66633;SDS011;53546;52.184;5.596;2023-02-08T03:33:57;2.60;;;2.28;;
66633;SDS011;53546;52.184;5.596;2023-02-08T03:36:30;5.90;;;2.40;;
66633;SDS011;53546;52.184;5.596;2023-02-08T03:39:02;2.70;;;2.50;;
66633;SDS011;53546;52.184;5.596;2023-02-08T03:41:32;4.53;;;2.13;;
66633;SDS011;53546;52.184;5.596;2023-02-08T03:44:08;2.67;;;2.03;;
66633;SDS011;53546;52.184;5.596;2023-02-08T03:46:38;2.30;;;2.10;;
66633;SDS011;53546;52.184;5.596;2023-02-08T03:49:06;2.45;;;2.20;;
66633;SDS011;53546;52.184;5.596;2023-02-08T03:51:34;2.50;;;2.30;;
66633;SDS011;53546;52.184;5.596;2023-02-08T03:54:03;4.88;;;2.30;;
66633;SDS011;53546;52.184;5.596;2023-02-08T03:56:35;2.65;;;2.40;;
66633;SDS011;53546;52.184;5.596;2023-02-08T03:59:06;2.55;;;2.30;;
66633;SDS011;53546;52.184;5.596;2023-02-08T04:01:37;3.20;;;2.40;;
66633;SDS011;53546;52.184;5.596;2023-02-08T04:04:08;2.60;;;2.30;;
66633;SDS011;53546;52.184;5.596;2023-02-08T04:06:35;2.92;;;2.33;;
66633;SDS011;53546;52.184;5.596;2023-02-08T04:09:00;2.50;;;2.30;;
66633;SDS011;53546;52.184;5.596;2023-02-08T04:11:26;2.75;;;2.28;;
66633;SDS011;53546;52.184;5.596;2023-02-08T04:13:51;3.10;;;2.47;;
66633;SDS011;53546;52.184;5.596;2023-02-08T04:16:17;2.78;;;2.50;;
66633;SDS011;53546;52.184;5.596;2023-02-08T04:18:42;3.42;;;2.60;;
66633;SDS011;53546;52.184;5.596;2023-02-08T04:21:07;3.00;;;2.45;;
66633;SDS011;53546;52.184;5.596;2023-02-08T04:23:33;2.55;;;2.30;;
66633;SDS011;53546;52.184;5.596;2023-02-08T04:25:58;4.72;;;2.28;;
66633;SDS011;53546;52.184;5.596;2023-02-08T04:28:23;2.95;;;2.05;;
66633;SDS011;53546;52.184;5.596;2023-02-08T04:30:49;2.75;;;2.40;;
66633;SDS011;53546;52.184;5.596;2023-02-08T04:33:14;2.33;;;2.13;;
66633;SDS011;53546;52.184;5.596;2023-02-08T04:35:40;3.83;;;2.20;;
66633;SDS011;53546;52.184;5.596;2023-02-08T04:38:06;2.53;;;2.33;;
66633;SDS011;53546;52.184;5.596;2023-02-08T04:40:32;2.67;;;2.20;;
66633;SDS011;53546;52.184;5.596;2023-02-08T04:42:57;2.55;;;2.35;;
66633;SDS011;53546;52.184;5.596;2023-02-08T04:45:23;2.80;;;2.33;;
66633;SDS011;53546;52.184;5.596;2023-02-08T04:47:49;2.60;;;2.40;;
66633;SDS011;53546;52.184;5.596;2023-02-08T04:50:14;2.33;;;2.13;;
66633;SDS011;53546;52.184;5.596;2023-02-08T04:52:40;2.40;;;2.20;;
66633;SDS011;53546;52.184;5.596;2023-02-08T04:55:06;3.10;;;2.55;;
66633;SDS011;53546;52.184;5.596;2023-02-08T04:57:31;2.70;;;2.33;;
66633;SDS011;53546;52.184;5.596;2023-02-08T04:59:57;2.85;;;2.20;;
66633;SDS011;53546;52.184;5.596;2023-02-08T05:02:22;2.65;;;2.35;;
66633;SDS011;53546;52.184;5.596;2023-02-08T05:04:47;3.47;;;2.70;;
66633;SDS011;53546;52.184;5.596;2023-02-08T05:07:13;2.90;;;2.50;;
66633;SDS011;53546;52.184;5.596;2023-02-08T05:09:38;2.85;;;2.40;;
66633;SDS011;53546;52.184;5.596;2023-02-08T05:12:04;6.28;;;2.55;;
66633;SDS011;53546;52.184;5.596;2023-02-08T05:14:29;2.92;;;2.67;;
66633;SDS011;53546;52.184;5.596;2023-02-08T05:16:55;2.70;;;1.98;;
66633;SDS011;53546;52.184;5.596;2023-02-08T05:19:20;11.75;;;2.97;;
66633;SDS011;53546;52.184;5.596;2023-02-08T05:21:45;6.07;;;2.95;;
66633;SDS011;53546;52.184;5.596;2023-02-08T05:24:11;3.83;;;2.63;;
66633;SDS011;53546;52.184;5.596;2023-02-08T05:26:36;5.78;;;3.20;;
66633;SDS011;53546;52.184;5.596;2023-02-08T05:29:02;5.13;;;2.33;;
66633;SDS011;53546;52.184;5.596;2023-02-08T05:31:28;6.40;;;2.75;;
66633;SDS011;53546;52.184;5.596;2023-02-08T05:33:53;5.97;;;2.65;;
66633;SDS011;53546;52.184;5.596;2023-02-08T05:36:19;13.00;;;4.25;;
66633;SDS011;53546;52.184;5.596;2023-02-08T05:38:45;10.77;;;3.85;;
66633;SDS011;53546;52.184;5.596;2023-02-08T05:41:10;20.75;;;4.10;;
66633;SDS011;53546;52.184;5.596;2023-02-08T05:43:36;7.85;;;4.10;;
66633;SDS011;53546;52.184;5.596;2023-02-08T05:46:01;10.77;;;3.90;;
66633;SDS011;53546;52.184;5.596;2023-02-08T05:48:27;10.32;;;4.78;;
66633;SDS011;53546;52.184;5.596;2023-02-08T05:50:54;11.10;;;3.80;;
66633;SDS011;53546;52.184;5.596;2023-02-08T05:53:19;11.23;;;4.57;;
66633;SDS011;53546;52.184;5.596;2023-02-08T05:55:45;9.52;;;4.68;;
66633;SDS011;53546;52.184;5.596;2023-02-08T05:58:12;11.48;;;4.43;;
66633;SDS011;53546;52.184;5.596;2023-02-08T06:00:38;25.25;;;6.68;;
66633;SDS011;53546;52.184;5.596;2023-02-08T06:03:03;18.60;;;5.25;;
66633;SDS011;53546;52.184;5.596;2023-02-08T06:05:29;20.85;;;5.50;;
66633;SDS011;53546;52.184;5.596;2023-02-08T06:07:55;14.13;;;4.60;;
66633;SDS011;53546;52.184;5.596;2023-02-08T06:10:20;12.45;;;3.85;;
66633;SDS011;53546;52.184;5.596;2023-02-08T06:12:45;10.40;;;4.22;;
66633;SDS011;53546;52.184;5.596;2023-02-08T06:15:11;12.13;;;4.22;;
66633;SDS011;53546;52.184;5.596;2023-02-08T06:17:36;9.13;;;3.63;;
66633;SDS011;53546;52.184;5.596;2023-02-08T06:20:02;14.00;;;3.92;;
66633;SDS011;53546;52.184;5.596;2023-02-08T06:22:27;7.13;;;3.28;;
66633;SDS011;53546;52.184;5.596;2023-02-08T06:24:53;7.60;;;3.30;;
66633;SDS011;53546;52.184;5.596;2023-02-08T06:27:18;6.05;;;3.22;;
66633;SDS011;53546;52.184;5.596;2023-02-08T06:29:43;6.13;;;3.47;;
66633;SDS011;53546;52.184;5.596;2023-02-08T06:32:09;11.13;;;3.55;;
66633;SDS011;53546;52.184;5.596;2023-02-08T06:34:35;17.80;;;3.85;;
66633;SDS011;53546;52.184;5.596;2023-02-08T06:37:00;4.75;;;3.00;;
66633;SDS011;53546;52.184;5.596;2023-02-08T06:39:26;5.55;;;3.40;;
66633;SDS011;53546;52.184;5.596;2023-02-08T06:41:52;7.20;;;3.65;;
66633;SDS011;53546;52.184;5.596;2023-02-08T06:44:17;9.38;;;3.67;;
66633;SDS011;53546;52.184;5.596;2023-02-08T06:46:43;8.02;;;3.40;;
66633;SDS011;53546;52.184;5.596;2023-02-08T06:49:09;5.13;;;3.08;;
66633;SDS011;53546;52.184;5.596;2023-02-08T06:51:35;6.18;;;3.60;;
66633;SDS011;53546;52.184;5.596;2023-02-08T06:54:00;5.63;;;3.30;;
66633;SDS011;53546;52.184;5.596;2023-02-08T06:56:25;4.90;;;3.25;;
66633;SDS011;53546;52.184;5.596;2023-02-08T06:58:51;5.85;;;3.58;;
66633;SDS011;53546;52.184;5.596;2023-02-08T07:01:16;6.53;;;3.30;;
66633;SDS011;53546;52.184;5.596;2023-02-08T07:03:42;4.07;;;2.90;;
66633;SDS011;53546;52.184;5.596;2023-02-08T07:06:11;4.97;;;3.15;;
66633;SDS011;53546;52.184;5.596;2023-02-08T07:08:37;6.80;;;3.40;;
66633;SDS011;53546;52.184;5.596;2023-02-08T07:11:10;6.63;;;3.83;;
66633;SDS011;53546;52.184;5.596;2023-02-08T07:13:37;4.85;;;3.45;;
66633;SDS011;53546;52.184;5.596;2023-02-08T07:16:03;4.10;;;3.15;;
66633;SDS011;53546;52.184;5.596;2023-02-08T07:18:29;5.30;;;3.38;;
66633;SDS011;53546;52.184;5.596;2023-02-08T07:20:54;4.78;;;3.40;;
66633;SDS011;53546;52.184;5.596;2023-02-08T07:23:20;6.40;;;3.42;;
66633;SDS011;53546;52.184;5.596;2023-02-08T07:25:54;4.93;;;3.40;;
66633;SDS011;53546;52.184;5.596;2023-02-08T07:28:23;5.70;;;3.60;;
66633;SDS011;53546;52.184;5.596;2023-02-08T07:30:48;6.93;;;3.75;;
66633;SDS011;53546;52.184;5.596;2023-02-08T07:33:14;4.85;;;3.42;;
66633;SDS011;53546;52.184;5.596;2023-02-08T07:35:39;4.90;;;3.45;;
66633;SDS011;53546;52.184;5.596;2023-02-08T07:38:04;4.50;;;3.40;;
66633;SDS011;53546;52.184;5.596;2023-02-08T07:40:30;4.00;;;3.58;;
66633;SDS011;53546;52.184;5.596;2023-02-08T07:42:56;5.03;;;3.58;;
66633;SDS011;53546;52.184;5.596;2023-02-08T07:45:21;6.47;;;3.25;;
66633;SDS011;53546;52.184;5.596;2023-02-08T07:47:46;5.95;;;3.80;;
66633;SDS011;53546;52.184;5.596;2023-02-08T07:50:12;6.47;;;3.67;;
66633;SDS011;53546;52.184;5.596;2023-02-08T07:52:40;3.92;;;3.42;;
66633;SDS011;53546;52.184;5.596;2023-02-08T07:55:07;5.65;;;3.67;;
66633;SDS011;53546;52.184;5.596;2023-02-08T07:57:37;5.00;;;3.67;;
66633;SDS011;53546;52.184;5.596;2023-02-08T08:00:02;4.72;;;3.80;;
66633;SDS011;53546;52.184;5.596;2023-02-08T08:02:28;3.92;;;3.33;;
66633;SDS011;53546;52.184;5.596;2023-02-08T08:04:53;5.20;;;3.75;;
66633;SDS011;53546;52.184;5.596;2023-02-08T08:07:19;5.60;;;3.70;;
66633;SDS011;53546;52.184;5.596;2023-02-08T08:09:44;3.95;;;3.50;;
66633;SDS011;53546;52.184;5.596;2023-02-08T08:12:09;4.00;;;3.60;;
66633;SDS011;53546;52.184;5.596;2023-02-08T08:14:35;5.97;;;3.28;;
66633;SDS011;53546;52.184;5.596;2023-02-08T08:17:00;4.55;;;3.45;;
66633;SDS011;53546;52.184;5.596;2023-02-08T08:19:26;4.80;;;3.60;;
66633;SDS011;53546;52.184;5.596;2023-02-08T08:21:52;4.15;;;3.33;;
66633;SDS011;53546;52.184;5.596;2023-02-08T08:24:17;4.78;;;3.60;;
66633;SDS011;53546;52.184;5.596;2023-02-08T08:26:43;4.57;;;3.70;;
66633;SDS011;53546;52.184;5.596;2023-02-08T08:29:08;4.93;;;3.53;;
66633;SDS011;53546;52.184;5.596;2023-02-08T08:31:33;5.90;;;3.72;;
66633;SDS011;53546;52.184;5.596;2023-02-08T08:33:59;4.57;;;3.90;;
66633;SDS011;53546;52.184;5.596;2023-02-08T08:36:24;4.03;;;3.63;;
66633;SDS011;53546;52.184;5.596;2023-02-08T08:38:50;4.57;;;3.60;;
66633;SDS011;53546;52.184;5.596;2023-02-08T08:41:15;5.60;;;3.80;;
66633;SDS011;53546;52.184;5.596;2023-02-08T08:43:41;5.38;;;3.50;;
66633;SDS011;53546;52.184;5.596;2023-02-08T08:46:07;4.05;;;3.60;;
66633;SDS011;53546;52.184;5.596;2023-02-08T08:48:34;5.07;;;3.60;;
66633;SDS011;53546;52.184;5.596;2023-02-08T08:51:00;4.25;;;3.33;;
66633;SDS011;53546;52.184;5.596;2023-02-08T08:53:26;4.55;;;3.50;;
66633;SDS011;53546;52.184;5.596;2023-02-08T08:55:51;3.83;;;3.42;;
66633;SDS011;53546;52.184;5.596;2023-02-08T08:58:17;4.07;;;3.50;;
66633;SDS011;53546;52.184;5.596;2023-02-08T09:00:42;4.30;;;3.53;;
66633;SDS011;53546;52.184;5.596;2023-02-08T09:03:07;4.38;;;3.72;;
66633;SDS011;53546;52.184;5.596;2023-02-08T09:05:33;4.28;;;3.33;;
66633;SDS011;53546;52.184;5.596;2023-02-08T09:07:59;4.63;;;3.45;;
66633;SDS011;53546;52.184;5.596;2023-02-08T09:10:25;4.38;;;3.63;;
66633;SDS011;53546;52.184;5.596;2023-02-08T09:12:51;4.45;;;3.72;;
66633;SDS011;53546;52.184;5.596;2023-02-08T09:15:17;5.57;;;3.75;;
66633;SDS011;53546;52.184;5.596;2023-02-08T09:17:42;8.15;;;3.65;;
66633;SDS011;53546;52.184;5.596;2023-02-08T09:20:08;4.53;;;3.63;;
66633;SDS011;53546;52.184;5.596;2023-02-08T09:22:34;5.22;;;3.35;;
66633;SDS011;53546;52.184;5.596;2023-02-08T09:24:59;4.63;;;3.22;;
66633;SDS011;53546;52.184;5.596;2023-02-08T09:27:26;4.55;;;3.65;;
66633;SDS011;53546;52.184;5.596;2023-02-08T09:29:52;4.55;;;3.83;;
66633;SDS011;53546;52.184;5.596;2023-02-08T09:32:18;4.35;;;3.42;;
66633;SDS011;53546;52.184;5.596;2023-02-08T09:34:45;5.10;;;3.65;;
66633;SDS011;53546;52.184;5.596;2023-02-08T09:37:10;4.30;;;3.17;;
66633;SDS011;53546;52.184;5.596;2023-02-08T09:39:36;4.03;;;3.58;;
66633;SDS011;53546;52.184;5.596;2023-02-08T09:42:08;4.18;;;3.78;;
66633;SDS011;53546;52.184;5.596;2023-02-08T09:50:05;3.85;;;3.40;;
66633;SDS011;53546;52.184;5.596;2023-02-08T09:52:43;3.45;;;3.15;;
66633;SDS011;53546;52.184;5.596;2023-02-08T09:55:31;4.32;;;3.45;;
66633;SDS011;53546;52.184;5.596;2023-02-08T09:58:22;4.35;;;3.15;;
66633;SDS011;53546;52.184;5.596;2023-02-08T10:00:48;5.35;;;3.80;;
66633;SDS011;53546;52.184;5.596;2023-02-08T10:05:59;4.20;;;3.60;;
66633;SDS011;53546;52.184;5.596;2023-02-08T10:08:28;4.00;;;3.28;;
66633;SDS011;53546;52.184;5.596;2023-02-08T10:11:01;3.88;;;3.47;;
66633;SDS011;53546;52.184;5.596;2023-02-08T10:16:05;4.38;;;3.50;;
66633;SDS011;53546;52.184;5.596;2023-02-08T10:21:15;3.47;;;3.17;;
66633;SDS011;53546;52.184;5.596;2023-02-08T10:29:28;4.00;;;3.45;;
66633;SDS011;53546;52.184;5.596;2023-02-08T10:32:59;4.75;;;3.58;;
66633;SDS011;53546;52.184;5.596;2023-02-08T10:35:09;4.22;;;3.50;;
66633;SDS011;53546;52.184;5.596;2023-02-08T10:37:37;5.07;;;3.30;;
66633;SDS011;53546;52.184;5.596;2023-02-08T10:42:47;5.63;;;3.80;;
66633;SDS011;53546;52.184;5.596;2023-02-08T10:45:23;4.50;;;3.63;;
66633;SDS011;53546;52.184;5.596;2023-02-08T10:47:52;4.15;;;3.70;;
66633;SDS011;53546;52.184;5.596;2023-02-08T10:52:48;3.80;;;3.45;;
66633;SDS011;53546;52.184;5.596;2023-02-08T10:55:14;4.50;;;3.38;;
66633;SDS011;53546;52.184;5.596;2023-02-08T10:57:42;4.43;;;3.15;;
66633;SDS011;53546;52.184;5.596;2023-02-08T11:00:14;3.88;;;3.20;;
66633;SDS011;53546;52.184;5.596;2023-02-08T11:02:43;3.45;;;3.08;;
66633;SDS011;53546;52.184;5.596;2023-02-08T11:05:53;4.30;;;3.15;;
66633;SDS011;53546;52.184;5.596;2023-02-08T11:08:04;5.10;;;3.28;;
66633;SDS011;53546;52.184;5.596;2023-02-08T11:10:32;4.78;;;3.45;;
66633;SDS011;53546;52.184;5.596;2023-02-08T11:12:59;4.05;;;3.13;;
66633;SDS011;53546;52.184;5.596;2023-02-08T11:18:22;4.05;;;3.38;;
66633;SDS011;53546;52.184;5.596;2023-02-08T11:21:01;4.95;;;3.38;;
66633;SDS011;53546;52.184;5.596;2023-02-08T11:23:32;4.60;;;3.53;;
66633;SDS011;53546;52.184;5.596;2023-02-08T11:26:18;4.82;;;3.30;;
66633;SDS011;53546;52.184;5.596;2023-02-08T11:28:57;7.32;;;3.25;;
66633;SDS011;53546;52.184;5.596;2023-02-08T11:31:56;11.00;;;3.40;;
66633;SDS011;53546;52.184;5.596;2023-02-08T11:34:27;6.03;;;2.90;;
66633;SDS011;53546;52.184;5.596;2023-02-08T11:36:57;6.78;;;3.20;;
66633;SDS011;53546;52.184;5.596;2023-02-08T11:39:28;3.75;;;2.80;;
66633;SDS011;53546;52.184;5.596;2023-02-08T11:41:59;4.65;;;3.03;;
66633;SDS011;53546;52.184;5.596;2023-02-08T11:44:26;4.95;;;3.10;;
66633;SDS011;53546;52.184;5.596;2023-02-08T11:46:53;5.90;;;3.00;;
66633;SDS011;53546;52.184;5.596;2023-02-08T11:49:22;3.17;;;2.88;;
66633;SDS011;53546;52.184;5.596;2023-02-08T11:51:50;4.00;;;2.72;;
66633;SDS011;53546;52.184;5.596;2023-02-08T12:00:11;4.47;;;3.20;;
66633;SDS011;53546;52.184;5.596;2023-02-08T12:02:41;3.42;;;2.83;;
66633;SDS011;53546;52.184;5.596;2023-02-08T12:05:14;3.47;;;2.60;;
66633;SDS011;53546;52.184;5.596;2023-02-08T12:07:56;5.78;;;2.80;;
66633;SDS011;53546;52.184;5.596;2023-02-08T12:21:45;3.17;;;2.40;;
66633;SDS011;53546;52.184;5.596;2023-02-08T12:24:27;3.97;;;2.50;;
66633;SDS011;53546;52.184;5.596;2023-02-08T12:38:25;4.38;;;2.47;;
66633;SDS011;53546;52.184;5.596;2023-02-08T12:44:08;4.63;;;2.40;;
66633;SDS011;53546;52.184;5.596;2023-02-08T12:50:02;5.30;;;2.33;;
66633;SDS011;53546;52.184;5.596;2023-02-08T12:52:45;5.63;;;2.65;;
66633;SDS011;53546;52.184;5.596;2023-02-08T12:57:59;8.10;;;2.58;;
66633;SDS011;53546;52.184;5.596;2023-02-08T13:00:31;10.60;;;2.47;;
66633;SDS011;53546;52.184;5.596;2023-02-08T13:03:04;3.15;;;2.17;;
66633;SDS011;53546;52.184;5.596;2023-02-08T13:05:37;6.80;;;2.30;;
66633;SDS011;53546;52.184;5.596;2023-02-08T13:08:26;12.57;;;2.65;;
66633;SDS011;53546;52.184;5.596;2023-02-08T13:10:57;5.78;;;2.38;;
66633;SDS011;53546;52.184;5.596;2023-02-08T13:13:29;5.30;;;2.20;;
66633;SDS011;53546;52.184;5.596;2023-02-08T13:16:06;6.20;;;2.45;;
66633;SDS011;53546;52.184;5.596;2023-02-08T13:18:45;3.85;;;2.42;;
66633;SDS011;53546;52.184;5.596;2023-02-08T13:21:25;3.80;;;2.60;;
66633;SDS011;53546;52.184;5.596;2023-02-08T13:23:54;10.20;;;2.70;;
66633;SDS011;53546;52.184;5.596;2023-02-08T13:26:28;4.70;;;2.38;;
66633;SDS011;53546;52.184;5.596;2023-02-08T13:28:59;6.50;;;2.45;;
66633;SDS011;53546;52.184;5.596;2023-02-08T13:31:33;5.55;;;2.50;;
66633;SDS011;53546;52.184;5.596;2023-02-08T13:36:58;3.92;;;2.00;;
66633;SDS011;53546;52.184;5.596;2023-02-08T13:39:31;3.08;;;2.10;;
66633;SDS011;53546;52.184;5.596;2023-02-08T13:42:22;3.90;;;2.38;;
66633;SDS011;53546;52.184;5.596;2023-02-08T13:44:53;2.88;;;2.22;;
66633;SDS011;53546;52.184;5.596;2023-02-08T13:47:25;7.43;;;2.20;;
66633;SDS011;53546;52.184;5.596;2023-02-08T13:49:53;3.47;;;2.10;;
66633;SDS011;53546;52.184;5.596;2023-02-08T13:58:01;3.75;;;2.40;;
66633;SDS011;53546;52.184;5.596;2023-02-08T14:00:34;6.40;;;2.80;;
66633;SDS011;53546;52.184;5.596;2023-02-08T14:05:42;4.22;;;2.20;;
66633;SDS011;53546;52.184;5.596;2023-02-08T14:08:18;2.95;;;2.15;;
66633;SDS011;53546;52.184;5.596;2023-02-08T14:11:10;2.95;;;2.10;;
66633;SDS011;53546;52.184;5.596;2023-02-08T14:13:38;2.83;;;2.03;;
66633;SDS011;53546;52.184;5.596;2023-02-08T14:21:47;2.63;;;2.05;;
66633;SDS011;53546;52.184;5.596;2023-02-08T14:24:21;4.30;;;2.25;;
66633;SDS011;53546;52.184;5.596;2023-02-08T14:26:49;4.03;;;1.92;;
66633;SDS011;53546;52.184;5.596;2023-02-08T14:29:20;5.40;;;2.22;;
66633;SDS011;53546;52.184;5.596;2023-02-08T14:31:49;3.40;;;2.10;;
66633;SDS011;53546;52.184;5.596;2023-02-08T14:34:37;1.98;;;1.77;;
66633;SDS011;53546;52.184;5.596;2023-02-08T14:39:50;3.58;;;1.70;;
66633;SDS011;53546;52.184;5.596;2023-02-08T14:43:45;2.72;;;1.88;;
66633;SDS011;53546;52.184;5.596;2023-02-08T14:45:42;3.28;;;1.65;;
66633;SDS011;53546;52.184;5.596;2023-02-08T14:56:29;2.92;;;1.75;;
66633;SDS011;53546;52.184;5.596;2023-02-08T14:59:06;1.70;;;1.40;;
66633;SDS011;53546;52.184;5.596;2023-02-08T15:04:18;1.85;;;1.40;;
66633;SDS011;53546;52.184;5.596;2023-02-08T15:06:48;1.60;;;1.40;;
66633;SDS011;53546;52.184;5.596;2023-02-08T15:09:35;1.83;;;1.50;;
66633;SDS011;53546;52.184;5.596;2023-02-08T15:14:43;4.25;;;1.30;;
66633;SDS011;53546;52.184;5.596;2023-02-08T15:20:18;4.28;;;1.80;;
66633;SDS011;53546;52.184;5.596;2023-02-08T15:22:45;3.97;;;1.35;;
66633;SDS011;53546;52.184;5.596;2023-02-08T15:25:24;1.67;;;1.40;;
66633;SDS011;53546;52.184;5.596;2023-02-08T15:27:55;2.30;;;1.50;;
66633;SDS011;53546;52.184;5.596;2023-02-08T15:30:27;2.45;;;1.40;;
66633;SDS011;53546;52.184;5.596;2023-02-08T15:32:58;1.30;;;1.20;;
66633;SDS011;53546;52.184;5.596;2023-02-08T15:35:24;3.65;;;1.50;;
66633;SDS011;53546;52.184;5.596;2023-02-08T15:37:51;2.35;;;1.52;;
66633;SDS011;53546;52.184;5.596;2023-02-08T15:40:26;1.48;;;1.38;;
66633;SDS011;53546;52.184;5.596;2023-02-08T15:42:53;3.03;;;1.80;;
66633;SDS011;53546;52.184;5.596;2023-02-08T15:45:19;1.73;;;1.48;;
66633;SDS011;53546;52.184;5.596;2023-02-08T15:47:57;11.18;;;1.70;;
66633;SDS011;53546;52.184;5.596;2023-02-08T15:50:23;1.50;;;1.40;;
66633;SDS011;53546;52.184;5.596;2023-02-08T15:52:55;1.92;;;1.50;;
66633;SDS011;53546;52.184;5.596;2023-02-08T15:55:22;2.28;;;1.60;;
66633;SDS011;53546;52.184;5.596;2023-02-08T15:57:53;4.15;;;1.60;;
66633;SDS011;53546;52.184;5.596;2023-02-08T16:00:26;2.13;;;1.92;;
66633;SDS011;53546;52.184;5.596;2023-02-08T16:02:55;4.00;;;1.92;;
66633;SDS011;53546;52.184;5.596;2023-02-08T16:05:32;2.58;;;1.90;;
66633;SDS011;53546;52.184;5.596;2023-02-08T16:07:58;2.35;;;2.10;;
66633;SDS011;53546;52.184;5.596;2023-02-08T16:12:57;3.38;;;2.13;;
66633;SDS011;53546;52.184;5.596;2023-02-08T16:18:02;4.18;;;2.10;;
66633;SDS011;53546;52.184;5.596;2023-02-08T16:20:29;2.45;;;1.88;;
66633;SDS011;53546;52.184;5.596;2023-02-08T16:22:59;2.72;;;2.03;;
66633;SDS011;53546;52.184;5.596;2023-02-08T16:25:45;3.05;;;1.90;;
66633;SDS011;53546;52.184;5.596;2023-02-08T16:28:23;2.58;;;2.10;;
66633;SDS011;53546;52.184;5.596;2023-02-08T16:30:56;3.80;;;2.15;;
66633;SDS011;53546;52.184;5.596;2023-02-08T16:33:31;5.30;;;2.60;;
66633;SDS011;53546;52.184;5.596;2023-02-08T16:35:57;3.30;;;2.50;;
66633;SDS011;53546;52.184;5.596;2023-02-08T16:38:27;3.42;;;2.63;;
66633;SDS011;53546;52.184;5.596;2023-02-08T16:40:55;2.92;;;2.50;;
66633;SDS011;53546;52.184;5.596;2023-02-08T16:43:30;4.70;;;2.70;;
66633;SDS011;53546;52.184;5.596;2023-02-08T16:48:40;5.25;;;2.92;;
66633;SDS011;53546;52.184;5.596;2023-02-08T16:51:11;3.50;;;3.00;;
66633;SDS011;53546;52.184;5.596;2023-02-08T16:53:40;3.03;;;2.60;;
66633;SDS011;53546;52.184;5.596;2023-02-08T16:56:06;4.13;;;3.15;;
66633;SDS011;53546;52.184;5.596;2023-02-08T16:58:32;4.63;;;3.05;;
66633;SDS011;53546;52.184;5.596;2023-02-08T17:00:57;3.83;;;2.80;;
66633;SDS011;53546;52.184;5.596;2023-02-08T17:03:23;5.05;;;2.67;;
66633;SDS011;53546;52.184;5.596;2023-02-08T17:05:49;5.05;;;2.78;;
66633;SDS011;53546;52.184;5.596;2023-02-08T17:08:15;5.03;;;2.83;;
66633;SDS011;53546;52.184;5.596;2023-02-08T17:10:42;3.50;;;2.58;;
66633;SDS011;53546;52.184;5.596;2023-02-08T17:13:09;4.22;;;2.90;;
66633;SDS011;53546;52.184;5.596;2023-02-08T17:15:35;5.88;;;3.00;;
66633;SDS011;53546;52.184;5.596;2023-02-08T17:18:01;4.55;;;3.03;;
66633;SDS011;53546;52.184;5.596;2023-02-08T17:20:28;4.63;;;2.80;;
66633;SDS011;53546;52.184;5.596;2023-02-08T17:22:55;6.05;;;2.97;;
66633;SDS011;53546;52.184;5.596;2023-02-08T17:25:22;4.03;;;2.60;;
66633;SDS011;53546;52.184;5.596;2023-02-08T17:27:48;5.10;;;2.80;;
66633;SDS011;53546;52.184;5.596;2023-02-08T17:30:25;4.93;;;2.92;;
66633;SDS011;53546;52.184;5.596;2023-02-08T17:32:53;3.65;;;2.50;;